sensor_id;sensor_type;location;lat;lon;timestamp;temperature;humidity
46309;DHT22;32037;50.820;6.494;2024-03-23T00:56:12;13.90;99.90
46309;DHT22;32037;50.820;6.494;2024-03-23T00:58:39;13.90;99.90
46309;DHT22;32037;50.820;6.494;2024-03-23T01:01:06;13.90;99.90
46309;DHT22;32037;50.820;6.494;2024-03-23T01:03:32;13.90;99.90
46309;DHT22;32037;50.820;6.494;2024-03-23T01:05:59;13.80;99.90
46309;DHT22;32037;50.820;6.494;2024-03-23T01:08:25;13.80;99.90
46309;DHT22;32037;50.820;6.494;2024-03-23T01:10:58;13.80;99.90
46309;DHT22;32037;50.820;6.494;2024-03-23T01:13:25;13.80;99.90
46309;DHT22;32037;50.820;6.494;2024-03-23T01:15:52;13.80;99.90
46309;DHT22;32037;50.820;6.494;2024-03-23T01:18:19;13.80;99.90
46309;DHT22;32037;50.820;6.494;2024-03-23T01:20:46;13.80;99.90
46309;DHT22;32037;50.820;6.494;2024-03-23T01:23:12;13.80;99.90
46309;DHT22;32037;50.820;6.494;2024-03-23T01:25:39;13.80;99.90
46309;DHT22;32037;50.820;6.494;2024-03-23T01:28:07;13.80;99.90
46309;DHT22;32037;50.820;6.494;2024-03-23T01:30:35;13.80;99.90
46309;DHT22;32037;50.820;6.494;2024-03-23T01:33:02;13.80;99.90
46309;DHT22;32037;50.820;6.494;2024-03-23T01:35:29;13.80;99.90
46309;DHT22;32037;50.820;6.494;2024-03-23T01:37:55;13.80;99.90
46309;DHT22;32037;50.820;6.494;2024-03-23T01:40:22;13.80;99.90
46309;DHT22;32037;50.820;6.494;2024-03-23T01:42:58;13.80;99.90
46309;DHT22;32037;50.820;6.494;2024-03-23T01:45:27;13.80;99.90
46309;DHT22;32037;50.820;6.494;2024-03-23T01:47:53;13.80;99.90
46309;DHT22;32037;50.820;6.494;2024-03-23T01:50:20;13.80;99.90
46309;DHT22;32037;50.820;6.494;2024-03-23T01:52:47;13.80;99.90
46309;DHT22;32037;50.820;6.494;2024-03-23T01:55:15;13.80;99.90
46309;DHT22;32037;50.820;6.494;2024-03-23T01:57:41;13.80;99.90
46309;DHT22;32037;50.820;6.494;2024-03-23T02:00:09;13.80;99.90
46309;DHT22;32037;50.820;6.494;2024-03-23T02:02:43;13.70;99.90
46309;DHT22;32037;50.820;6.494;2024-03-23T02:05:11;13.70;99.90
46309;DHT22;32037;50.820;6.494;2024-03-23T02:07:38;13.70;99.90
46309;DHT22;32037;50.820;6.494;2024-03-23T02:10:06;13.70;99.90
46309;DHT22;32037;50.820;6.494;2024-03-23T02:12:32;13.70;99.90
46309;DHT22;32037;50.820;6.494;2024-03-23T02:15:00;13.70;99.90
46309;DHT22;32037;50.820;6.494;2024-03-23T02:17:26;13.70;99.90
46309;DHT22;32037;50.820;6.494;2024-03-23T02:19:54;13.70;99.90
46309;DHT22;32037;50.820;6.494;2024-03-23T02:22:20;13.70;99.90
46309;DHT22;32037;50.820;6.494;2024-03-23T02:24:49;13.70;99.90
46309;DHT22;32037;50.820;6.494;2024-03-23T02:27:15;13.70;99.90
46309;DHT22;32037;50.820;6.494;2024-03-23T02:29:42;13.70;99.90
46309;DHT22;32037;50.820;6.494;2024-03-23T02:32:08;13.70;99.90
46309;DHT22;32037;50.820;6.494;2024-03-23T02:34:35;13.70;99.90
46309;DHT22;32037;50.820;6.494;2024-03-23T02:37:02;13.70;99.90
46309;DHT22;32037;50.820;6.494;2024-03-23T02:39:29;13.70;99.90
46309;DHT22;32037;50.820;6.494;2024-03-23T02:41:56;13.70;99.90
46309;DHT22;32037;50.820;6.494;2024-03-23T02:44:24;13.70;99.90
46309;DHT22;32037;50.820;6.494;2024-03-23T02:46:50;13.70;99.90
46309;DHT22;32037;50.820;6.494;2024-03-23T02:49:17;13.70;99.90
46309;DHT22;32037;50.820;6.494;2024-03-23T02:51:43;13.70;99.90
46309;DHT22;32037;50.820;6.494;2024-03-23T02:54:11;13.70;99.90
46309;DHT22;32037;50.820;6.494;2024-03-23T02:56:37;13.70;99.90
46309;DHT22;32037;50.820;6.494;2024-03-23T02:59:05;13.60;99.90
46309;DHT22;32037;50.820;6.494;2024-03-23T03:01:31;13.70;99.90
46309;DHT22;32037;50.820;6.494;2024-03-23T03:03:59;13.70;99.90
46309;DHT22;32037;50.820;6.494;2024-03-23T03:06:26;13.60;99.90
46309;DHT22;32037;50.820;6.494;2024-03-23T03:08:53;13.70;99.90
46309;DHT22;32037;50.820;6.494;2024-03-23T03:11:19;13.70;99.90
46309;DHT22;32037;50.820;6.494;2024-03-23T03:13:47;13.60;99.90
46309;DHT22;32037;50.820;6.494;2024-03-23T03:16:14;13.60;99.90
46309;DHT22;32037;50.820;6.494;2024-03-23T03:18:41;13.60;99.90
46309;DHT22;32037;50.820;6.494;2024-03-23T03:21:07;13.60;99.90
46309;DHT22;32037;50.820;6.494;2024-03-23T03:23:37;13.60;99.90
46309;DHT22;32037;50.820;6.494;2024-03-23T03:26:03;13.60;99.90
46309;DHT22;32037;50.820;6.494;2024-03-23T03:28:30;13.60;99.90
46309;DHT22;32037;50.820;6.494;2024-03-23T03:30:58;13.70;99.90
46309;DHT22;32037;50.820;6.494;2024-03-23T03:33:27;13.60;99.90
46309;DHT22;32037;50.820;6.494;2024-03-23T03:35:53;13.60;99.90
46309;DHT22;32037;50.820;6.494;2024-03-23T03:38:20;13.60;99.90
46309;DHT22;32037;50.820;6.494;2024-03-23T03:40:46;13.60;99.90
46309;DHT22;32037;50.820;6.494;2024-03-23T03:43:13;13.60;99.90
46309;DHT22;32037;50.820;6.494;2024-03-23T03:45:39;13.60;99.90
46309;DHT22;32037;50.820;6.494;2024-03-23T03:48:07;13.60;99.90
46309;DHT22;32037;50.820;6.494;2024-03-23T03:50:34;13.60;99.90
46309;DHT22;32037;50.820;6.494;2024-03-23T03:53:01;13.60;99.90
46309;DHT22;32037;50.820;6.494;2024-03-23T03:55:27;13.60;99.90
46309;DHT22;32037;50.820;6.494;2024-03-23T03:57:54;13.60;99.90
46309;DHT22;32037;50.820;6.494;2024-03-23T04:00:21;13.60;99.90
46309;DHT22;32037;50.820;6.494;2024-03-23T04:02:48;13.60;99.90
46309;DHT22;32037;50.820;6.494;2024-03-23T04:05:14;13.60;99.90
46309;DHT22;32037;50.820;6.494;2024-03-23T04:07:42;13.50;99.90
46309;DHT22;32037;50.820;6.494;2024-03-23T04:10:09;13.60;99.90
46309;DHT22;32037;50.820;6.494;2024-03-23T04:12:36;13.60;99.90
46309;DHT22;32037;50.820;6.494;2024-03-23T04:15:02;13.50;99.90
46309;DHT22;32037;50.820;6.494;2024-03-23T04:17:31;13.50;99.90
46309;DHT22;32037;50.820;6.494;2024-03-23T04:19:58;13.50;99.90
46309;DHT22;32037;50.820;6.494;2024-03-23T04:22:25;13.60;99.90
46309;DHT22;32037;50.820;6.494;2024-03-23T04:24:54;13.60;99.90
46309;DHT22;32037;50.820;6.494;2024-03-23T04:27:21;13.50;99.90
46309;DHT22;32037;50.820;6.494;2024-03-23T04:29:47;13.50;99.90
46309;DHT22;32037;50.820;6.494;2024-03-23T04:32:15;13.50;99.90
46309;DHT22;32037;50.820;6.494;2024-03-23T04:34:41;13.50;99.90
46309;DHT22;32037;50.820;6.494;2024-03-23T04:37:09;13.50;99.90
46309;DHT22;32037;50.820;6.494;2024-03-23T04:39:36;13.50;99.90
46309;DHT22;32037;50.820;6.494;2024-03-23T04:42:06;13.50;99.90
46309;DHT22;32037;50.820;6.494;2024-03-23T04:44:33;13.50;99.90
46309;DHT22;32037;50.820;6.494;2024-03-23T04:47:00;13.50;99.90
46309;DHT22;32037;50.820;6.494;2024-03-23T04:49:27;13.50;99.90
46309;DHT22;32037;50.820;6.494;2024-03-23T04:51:55;13.50;99.90
46309;DHT22;32037;50.820;6.494;2024-03-23T04:54:23;13.50;99.90
46309;DHT22;32037;50.820;6.494;2024-03-23T04:56:50;13.50;99.90
46309;DHT22;32037;50.820;6.494;2024-03-23T04:59:17;13.50;99.90
46309;DHT22;32037;50.820;6.494;2024-03-23T05:01:44;13.50;99.90
46309;DHT22;32037;50.820;6.494;2024-03-23T05:04:10;13.50;99.90
46309;DHT22;32037;50.820;6.494;2024-03-23T05:06:37;13.50;99.90
46309;DHT22;32037;50.820;6.494;2024-03-23T05:09:04;13.50;99.90
46309;DHT22;32037;50.820;6.494;2024-03-23T05:11:32;13.50;99.90
46309;DHT22;32037;50.820;6.494;2024-03-23T05:13:59;13.40;99.90
46309;DHT22;32037;50.820;6.494;2024-03-23T05:16:27;13.50;99.90
46309;DHT22;32037;50.820;6.494;2024-03-23T05:18:54;13.40;99.90
46309;DHT22;32037;50.820;6.494;2024-03-23T05:21:21;13.40;99.90
46309;DHT22;32037;50.820;6.494;2024-03-23T05:23:47;13.40;99.90
46309;DHT22;32037;50.820;6.494;2024-03-23T05:26:14;13.40;99.90
46309;DHT22;32037;50.820;6.494;2024-03-23T05:28:40;13.40;99.90
46309;DHT22;32037;50.820;6.494;2024-03-23T05:31:07;13.40;99.90
46309;DHT22;32037;50.820;6.494;2024-03-23T05:33:36;13.40;99.90
46309;DHT22;32037;50.820;6.494;2024-03-23T05:36:05;13.40;99.90
46309;DHT22;32037;50.820;6.494;2024-03-23T05:38:31;13.40;99.90
46309;DHT22;32037;50.820;6.494;2024-03-23T05:40:59;13.40;99.90
46309;DHT22;32037;50.820;6.494;2024-03-23T05:43:26;13.40;99.90
46309;DHT22;32037;50.820;6.494;2024-03-23T05:45:54;13.40;99.90
46309;DHT22;32037;50.820;6.494;2024-03-23T05:48:21;13.40;99.90
46309;DHT22;32037;50.820;6.494;2024-03-23T05:50:50;13.40;99.90
46309;DHT22;32037;50.820;6.494;2024-03-23T05:53:16;13.40;99.90
46309;DHT22;32037;50.820;6.494;2024-03-23T05:55:44;13.40;99.90
46309;DHT22;32037;50.820;6.494;2024-03-23T05:58:10;13.40;99.90
46309;DHT22;32037;50.820;6.494;2024-03-23T06:00:37;13.30;99.90
46309;DHT22;32037;50.820;6.494;2024-03-23T06:03:04;13.30;99.90
46309;DHT22;32037;50.820;6.494;2024-03-23T06:05:31;13.30;99.90
46309;DHT22;32037;50.820;6.494;2024-03-23T06:07:58;13.30;99.90
46309;DHT22;32037;50.820;6.494;2024-03-23T06:10:25;13.30;99.90
46309;DHT22;32037;50.820;6.494;2024-03-23T06:12:52;13.30;99.90
46309;DHT22;32037;50.820;6.494;2024-03-23T06:15:19;13.30;99.90
46309;DHT22;32037;50.820;6.494;2024-03-23T06:17:45;13.30;99.90
46309;DHT22;32037;50.820;6.494;2024-03-23T06:20:13;13.30;99.90
46309;DHT22;32037;50.820;6.494;2024-03-23T06:22:39;13.30;99.90
46309;DHT22;32037;50.820;6.494;2024-03-23T06:25:08;13.30;99.90
46309;DHT22;32037;50.820;6.494;2024-03-23T06:27:34;13.30;99.90
46309;DHT22;32037;50.820;6.494;2024-03-23T06:30:01;13.30;99.90
46309;DHT22;32037;50.820;6.494;2024-03-23T06:32:28;13.30;99.90
46309;DHT22;32037;50.820;6.494;2024-03-23T06:34:55;13.30;99.90
46309;DHT22;32037;50.820;6.494;2024-03-23T06:37:21;13.30;99.90
46309;DHT22;32037;50.820;6.494;2024-03-23T06:39:49;13.20;99.90
46309;DHT22;32037;50.820;6.494;2024-03-23T06:42:16;13.20;99.90
46309;DHT22;32037;50.820;6.494;2024-03-23T06:44:43;13.30;99.90
46309;DHT22;32037;50.820;6.494;2024-03-23T06:47:10;13.20;99.90
46309;DHT22;32037;50.820;6.494;2024-03-23T06:49:37;13.30;99.90
46309;DHT22;32037;50.820;6.494;2024-03-23T06:52:03;13.30;99.90
46309;DHT22;32037;50.820;6.494;2024-03-23T06:54:30;13.30;99.90
46309;DHT22;32037;50.820;6.494;2024-03-23T06:56:56;13.20;99.90
46309;DHT22;32037;50.820;6.494;2024-03-23T06:59:25;13.30;99.90
46309;DHT22;32037;50.820;6.494;2024-03-23T07:01:51;13.30;99.90
46309;DHT22;32037;50.820;6.494;2024-03-23T07:04:18;13.30;99.90
46309;DHT22;32037;50.820;6.494;2024-03-23T07:06:44;13.30;99.90
46309;DHT22;32037;50.820;6.494;2024-03-23T07:09:12;13.30;99.90
46309;DHT22;32037;50.820;6.494;2024-03-23T07:11:38;13.30;99.90
46309;DHT22;32037;50.820;6.494;2024-03-23T07:14:05;13.30;99.90
46309;DHT22;32037;50.820;6.494;2024-03-23T07:16:33;13.30;99.90
46309;DHT22;32037;50.820;6.494;2024-03-23T07:19:00;13.30;99.90
46309;DHT22;32037;50.820;6.494;2024-03-23T07:21:27;13.30;99.90
46309;DHT22;32037;50.820;6.494;2024-03-23T07:23:53;13.30;99.90
46309;DHT22;32037;50.820;6.494;2024-03-23T07:26:20;13.30;99.90
46309;DHT22;32037;50.820;6.494;2024-03-23T07:28:47;13.30;99.90
46309;DHT22;32037;50.820;6.494;2024-03-23T07:31:15;13.30;99.90
46309;DHT22;32037;50.820;6.494;2024-03-23T07:33:44;13.30;99.90
46309;DHT22;32037;50.820;6.494;2024-03-23T07:36:12;13.30;99.90
46309;DHT22;32037;50.820;6.494;2024-03-23T07:38:40;13.20;99.90
46309;DHT22;32037;50.820;6.494;2024-03-23T07:41:08;13.20;99.90
46309;DHT22;32037;50.820;6.494;2024-03-23T07:43:34;13.20;99.90
46309;DHT22;32037;50.820;6.494;2024-03-23T07:46:02;13.20;99.90
46309;DHT22;32037;50.820;6.494;2024-03-23T07:48:30;13.20;99.90
46309;DHT22;32037;50.820;6.494;2024-03-23T07:51:00;13.20;99.90
46309;DHT22;32037;50.820;6.494;2024-03-23T07:53:26;13.20;99.90
46309;DHT22;32037;50.820;6.494;2024-03-23T07:55:57;13.20;99.90
46309;DHT22;32037;50.820;6.494;2024-03-23T07:58:24;13.20;99.90
46309;DHT22;32037;50.820;6.494;2024-03-23T08:00:51;13.20;99.90
46309;DHT22;32037;50.820;6.494;2024-03-23T08:03:18;13.30;99.90
46309;DHT22;32037;50.820;6.494;2024-03-23T08:05:45;13.20;99.90
46309;DHT22;32037;50.820;6.494;2024-03-23T08:08:13;13.30;99.90
46309;DHT22;32037;50.820;6.494;2024-03-23T08:10:50;13.30;99.90
46309;DHT22;32037;50.820;6.494;2024-03-23T08:13:17;13.30;99.90
46309;DHT22;32037;50.820;6.494;2024-03-23T08:15:44;13.30;99.90
46309;DHT22;32037;50.820;6.494;2024-03-23T08:18:12;13.30;99.90
46309;DHT22;32037;50.820;6.494;2024-03-23T08:20:42;13.30;99.90
46309;DHT22;32037;50.820;6.494;2024-03-23T08:23:08;13.30;99.90
46309;DHT22;32037;50.820;6.494;2024-03-23T08:25:37;13.30;99.90
46309;DHT22;32037;50.820;6.494;2024-03-23T08:28:03;13.30;99.90
46309;DHT22;32037;50.820;6.494;2024-03-23T08:30:30;13.30;99.90
46309;DHT22;32037;50.820;6.494;2024-03-23T08:32:57;13.30;99.90
46309;DHT22;32037;50.820;6.494;2024-03-23T08:35:25;13.30;99.90
46309;DHT22;32037;50.820;6.494;2024-03-23T08:37:51;13.20;99.90
46309;DHT22;32037;50.820;6.494;2024-03-23T08:40:18;13.20;99.90
46309;DHT22;32037;50.820;6.494;2024-03-23T08:42:45;13.20;99.90
46309;DHT22;32037;50.820;6.494;2024-03-23T08:45:13;13.20;99.90
46309;DHT22;32037;50.820;6.494;2024-03-23T08:47:39;13.20;99.90
46309;DHT22;32037;50.820;6.494;2024-03-23T08:50:07;13.20;99.90
46309;DHT22;32037;50.820;6.494;2024-03-23T08:52:33;13.20;99.90
46309;DHT22;32037;50.820;6.494;2024-03-23T08:55:01;13.20;99.90
46309;DHT22;32037;50.820;6.494;2024-03-23T08:57:27;13.20;99.90
46309;DHT22;32037;50.820;6.494;2024-03-23T08:59:55;13.20;99.90
46309;DHT22;32037;50.820;6.494;2024-03-23T09:02:21;13.20;99.90
46309;DHT22;32037;50.820;6.494;2024-03-23T09:04:49;13.20;99.90
46309;DHT22;32037;50.820;6.494;2024-03-23T09:07:15;13.10;99.90
46309;DHT22;32037;50.820;6.494;2024-03-23T09:09:42;13.10;99.90
46309;DHT22;32037;50.820;6.494;2024-03-23T09:12:08;13.20;99.90
46309;DHT22;32037;50.820;6.494;2024-03-23T09:14:36;13.20;99.90
46309;DHT22;32037;50.820;6.494;2024-03-23T09:17:03;13.20;99.90
46309;DHT22;32037;50.820;6.494;2024-03-23T09:19:31;13.10;99.90
46309;DHT22;32037;50.820;6.494;2024-03-23T09:21:57;13.20;99.90
46309;DHT22;32037;50.820;6.494;2024-03-23T09:24:25;13.10;99.90
46309;DHT22;32037;50.820;6.494;2024-03-23T09:26:52;13.10;99.90
46309;DHT22;32037;50.820;6.494;2024-03-23T09:29:19;13.20;99.90
46309;DHT22;32037;50.820;6.494;2024-03-23T09:31:45;13.20;99.90
46309;DHT22;32037;50.820;6.494;2024-03-23T09:34:14;13.10;99.90
46309;DHT22;32037;50.820;6.494;2024-03-23T09:36:41;13.10;99.90
46309;DHT22;32037;50.820;6.494;2024-03-23T09:39:09;13.10;99.90
46309;DHT22;32037;50.820;6.494;2024-03-23T09:41:35;13.10;99.90
46309;DHT22;32037;50.820;6.494;2024-03-23T09:44:02;13.10;99.90
46309;DHT22;32037;50.820;6.494;2024-03-23T09:46:30;13.10;99.90
46309;DHT22;32037;50.820;6.494;2024-03-23T09:49:00;13.10;99.90
46309;DHT22;32037;50.820;6.494;2024-03-23T09:51:27;13.20;99.90
46309;DHT22;32037;50.820;6.494;2024-03-23T09:53:55;13.20;99.90
46309;DHT22;32037;50.820;6.494;2024-03-23T09:56:21;13.20;99.90
46309;DHT22;32037;50.820;6.494;2024-03-23T09:58:49;13.20;99.90
46309;DHT22;32037;50.820;6.494;2024-03-23T10:01:15;13.10;99.90
46309;DHT22;32037;50.820;6.494;2024-03-23T10:03:43;13.10;99.90
46309;DHT22;32037;50.820;6.494;2024-03-23T10:06:10;13.10;99.90
46309;DHT22;32037;50.820;6.494;2024-03-23T10:08:38;13.10;99.90
46309;DHT22;32037;50.820;6.494;2024-03-23T10:11:15;13.10;99.90
46309;DHT22;32037;50.820;6.494;2024-03-23T10:13:43;13.10;99.90
46309;DHT22;32037;50.820;6.494;2024-03-23T10:16:10;13.10;99.90
46309;DHT22;32037;50.820;6.494;2024-03-23T10:18:37;13.10;99.90
46309;DHT22;32037;50.820;6.494;2024-03-23T10:21:08;13.10;99.90
46309;DHT22;32037;50.820;6.494;2024-03-23T10:23:39;13.00;99.90
46309;DHT22;32037;50.820;6.494;2024-03-23T10:26:16;13.00;99.90
46309;DHT22;32037;50.820;6.494;2024-03-23T10:28:52;13.10;99.90
46309;DHT22;32037;50.820;6.494;2024-03-23T10:31:20;13.00;95.20
46309;DHT22;32037;50.820;6.494;2024-03-23T10:33:47;12.80;95.10
46309;DHT22;32037;50.820;6.494;2024-03-23T10:36:14;12.80;96.50
46309;DHT22;32037;50.820;6.494;2024-03-23T10:38:43;12.70;97.70
46309;DHT22;32037;50.820;6.494;2024-03-23T10:41:10;12.70;98.20
46309;DHT22;32037;50.820;6.494;2024-03-23T10:43:38;12.80;99.00
46309;DHT22;32037;50.820;6.494;2024-03-23T10:46:05;12.80;99.40
46309;DHT22;32037;50.820;6.494;2024-03-23T10:48:32;12.80;99.60
46309;DHT22;32037;50.820;6.494;2024-03-23T10:50:59;12.90;99.40
46309;DHT22;32037;50.820;6.494;2024-03-23T10:53:27;12.90;99.40
46309;DHT22;32037;50.820;6.494;2024-03-23T10:55:56;13.00;99.40
46309;DHT22;32037;50.820;6.494;2024-03-23T10:58:27;12.90;99.60
46309;DHT22;32037;50.820;6.494;2024-03-23T11:00:54;13.00;99.50
46309;DHT22;32037;50.820;6.494;2024-03-23T11:03:35;13.00;99.80
46309;DHT22;32037;50.820;6.494;2024-03-23T11:06:03;13.00;99.90
46309;DHT22;32037;50.820;6.494;2024-03-23T11:08:32;13.00;99.90
46309;DHT22;32037;50.820;6.494;2024-03-23T11:11:19;13.00;99.80
46309;DHT22;32037;50.820;6.494;2024-03-23T11:13:48;13.00;99.90
46309;DHT22;32037;50.820;6.494;2024-03-23T11:16:16;13.00;99.90
46309;DHT22;32037;50.820;6.494;2024-03-23T11:18:43;13.00;99.90
46309;DHT22;32037;50.820;6.494;2024-03-23T11:21:10;13.00;99.70
46309;DHT22;32037;50.820;6.494;2024-03-23T11:23:38;13.00;99.80
46309;DHT22;32037;50.820;6.494;2024-03-23T11:26:07;13.00;99.90
46309;DHT22;32037;50.820;6.494;2024-03-23T11:28:36;13.00;99.60
46309;DHT22;32037;50.820;6.494;2024-03-23T11:31:09;13.00;99.90
46309;DHT22;32037;50.820;6.494;2024-03-23T11:33:36;13.00;99.90
46309;DHT22;32037;50.820;6.494;2024-03-23T11:36:03;13.00;99.90
46309;DHT22;32037;50.820;6.494;2024-03-23T11:38:36;13.00;99.90
46309;DHT22;32037;50.820;6.494;2024-03-23T11:41:03;13.00;99.90
46309;DHT22;32037;50.820;6.494;2024-03-23T11:43:30;13.00;99.90
46309;DHT22;32037;50.820;6.494;2024-03-23T11:45:57;13.00;99.90
46309;DHT22;32037;50.820;6.494;2024-03-23T11:48:28;13.00;99.90
46309;DHT22;32037;50.820;6.494;2024-03-23T11:50:57;13.00;99.80
46309;DHT22;32037;50.820;6.494;2024-03-23T11:53:26;13.00;99.40
46309;DHT22;32037;50.820;6.494;2024-03-23T11:55:55;13.00;99.40
46309;DHT22;32037;50.820;6.494;2024-03-23T11:58:24;13.00;99.40
46309;DHT22;32037;50.820;6.494;2024-03-23T12:00:51;13.00;99.50
46309;DHT22;32037;50.820;6.494;2024-03-23T12:03:20;13.00;99.50
46309;DHT22;32037;50.820;6.494;2024-03-23T12:05:49;13.00;99.90
46309;DHT22;32037;50.820;6.494;2024-03-23T12:08:21;13.10;99.50
46309;DHT22;32037;50.820;6.494;2024-03-23T12:10:50;13.10;99.50
46309;DHT22;32037;50.820;6.494;2024-03-23T12:13:18;13.00;99.40
46309;DHT22;32037;50.820;6.494;2024-03-23T12:15:45;13.10;99.50
46309;DHT22;32037;50.820;6.494;2024-03-23T12:18:13;13.00;99.80
46309;DHT22;32037;50.820;6.494;2024-03-23T12:20:41;13.00;99.40
46309;DHT22;32037;50.820;6.494;2024-03-23T12:23:09;13.00;99.50
46309;DHT22;32037;50.820;6.494;2024-03-23T12:25:38;13.00;99.80
46309;DHT22;32037;50.820;6.494;2024-03-23T12:28:06;13.00;99.90
46309;DHT22;32037;50.820;6.494;2024-03-23T12:30:34;13.00;99.90
46309;DHT22;32037;50.820;6.494;2024-03-23T12:33:02;13.00;99.90
46309;DHT22;32037;50.820;6.494;2024-03-23T12:35:29;13.00;99.40
46309;DHT22;32037;50.820;6.494;2024-03-23T12:37:58;13.00;99.40
46309;DHT22;32037;50.820;6.494;2024-03-23T12:40:24;12.90;99.50
46309;DHT22;32037;50.820;6.494;2024-03-23T12:42:52;12.90;99.70
46309;DHT22;32037;50.820;6.494;2024-03-23T12:45:18;12.90;99.90
46309;DHT22;32037;50.820;6.494;2024-03-23T12:47:45;12.90;99.90
46309;DHT22;32037;50.820;6.494;2024-03-23T12:50:12;12.90;99.90
46309;DHT22;32037;50.820;6.494;2024-03-23T12:52:39;12.90;99.90
46309;DHT22;32037;50.820;6.494;2024-03-23T12:55:07;12.90;99.90
46309;DHT22;32037;50.820;6.494;2024-03-23T12:57:34;13.00;99.90
46309;DHT22;32037;50.820;6.494;2024-03-23T13:00:01;13.00;99.90
46309;DHT22;32037;50.820;6.494;2024-03-23T13:02:31;12.90;99.90
46309;DHT22;32037;50.820;6.494;2024-03-23T13:04:57;13.00;99.90
46309;DHT22;32037;50.820;6.494;2024-03-23T13:07:25;12.90;99.90
46309;DHT22;32037;50.820;6.494;2024-03-23T13:09:52;12.90;99.90
46309;DHT22;32037;50.820;6.494;2024-03-23T13:12:21;13.00;99.90
46309;DHT22;32037;50.820;6.494;2024-03-23T13:14:47;12.90;99.90
46309;DHT22;32037;50.820;6.494;2024-03-23T13:17:16;13.00;99.90
46309;DHT22;32037;50.820;6.494;2024-03-23T13:19:42;12.90;99.90
46309;DHT22;32037;50.820;6.494;2024-03-23T13:22:09;12.90;99.90
46309;DHT22;32037;50.820;6.494;2024-03-23T13:24:38;12.90;99.90
46309;DHT22;32037;50.820;6.494;2024-03-23T13:27:05;12.90;99.90
46309;DHT22;32037;50.820;6.494;2024-03-23T13:29:35;12.90;99.90
46309;DHT22;32037;50.820;6.494;2024-03-23T13:32:04;12.90;99.90
46309;DHT22;32037;50.820;6.494;2024-03-23T13:34:30;12.90;99.90
46309;DHT22;32037;50.820;6.494;2024-03-23T13:36:57;12.90;99.90
46309;DHT22;32037;50.820;6.494;2024-03-23T13:39:24;12.90;99.90
46309;DHT22;32037;50.820;6.494;2024-03-23T13:41:51;12.90;99.90
46309;DHT22;32037;50.820;6.494;2024-03-23T13:44:17;12.90;99.90
46309;DHT22;32037;50.820;6.494;2024-03-23T13:46:46;12.90;99.90
46309;DHT22;32037;50.820;6.494;2024-03-23T13:49:24;12.90;99.90
46309;DHT22;32037;50.820;6.494;2024-03-23T13:51:52;12.90;99.90
46309;DHT22;32037;50.820;6.494;2024-03-23T13:54:19;12.90;99.90
46309;DHT22;32037;50.820;6.494;2024-03-23T13:56:48;12.90;99.90
46309;DHT22;32037;50.820;6.494;2024-03-23T13:59:14;12.90;99.90
46309;DHT22;32037;50.820;6.494;2024-03-23T14:01:42;12.90;99.90
46309;DHT22;32037;50.820;6.494;2024-03-23T14:04:10;12.80;99.90
46309;DHT22;32037;50.820;6.494;2024-03-23T14:06:38;12.80;99.90
46309;DHT22;32037;50.820;6.494;2024-03-23T14:09:04;12.90;99.90
46309;DHT22;32037;50.820;6.494;2024-03-23T14:11:34;12.80;99.90
46309;DHT22;32037;50.820;6.494;2024-03-23T14:14:01;12.80;99.90
46309;DHT22;32037;50.820;6.494;2024-03-23T14:16:29;12.80;99.90
46309;DHT22;32037;50.820;6.494;2024-03-23T14:18:55;12.80;99.90
46309;DHT22;32037;50.820;6.494;2024-03-23T14:21:24;12.80;99.90
46309;DHT22;32037;50.820;6.494;2024-03-23T14:23:50;12.80;99.90
46309;DHT22;32037;50.820;6.494;2024-03-23T14:26:17;12.80;99.90
46309;DHT22;32037;50.820;6.494;2024-03-23T14:28:44;12.80;99.90
46309;DHT22;32037;50.820;6.494;2024-03-23T14:31:11;12.80;99.90
46309;DHT22;32037;50.820;6.494;2024-03-23T14:33:38;12.80;99.90
46309;DHT22;32037;50.820;6.494;2024-03-23T14:36:07;12.80;99.90
46309;DHT22;32037;50.820;6.494;2024-03-23T14:38:35;12.80;99.90
46309;DHT22;32037;50.820;6.494;2024-03-23T14:41:03;12.80;99.90
46309;DHT22;32037;50.820;6.494;2024-03-23T14:43:29;12.80;99.90
46309;DHT22;32037;50.820;6.494;2024-03-23T14:46:07;12.80;99.90
46309;DHT22;32037;50.820;6.494;2024-03-23T14:48:34;12.80;99.90
46309;DHT22;32037;50.820;6.494;2024-03-23T14:51:01;12.80;99.90
46309;DHT22;32037;50.820;6.494;2024-03-23T14:53:30;12.80;99.90
46309;DHT22;32037;50.820;6.494;2024-03-23T14:55:59;12.80;99.90
46309;DHT22;32037;50.820;6.494;2024-03-23T14:58:26;12.80;99.90
46309;DHT22;32037;50.820;6.494;2024-03-23T15:00:59;12.80;99.90
46309;DHT22;32037;50.820;6.494;2024-03-23T15:03:26;12.80;99.90
46309;DHT22;32037;50.820;6.494;2024-03-23T15:05:54;12.80;99.90
46309;DHT22;32037;50.820;6.494;2024-03-23T15:08:20;12.80;99.90
46309;DHT22;32037;50.820;6.494;2024-03-23T15:10:48;12.80;99.90
46309;DHT22;32037;50.820;6.494;2024-03-23T15:13:16;12.80;99.90
46309;DHT22;32037;50.820;6.494;2024-03-23T15:15:44;12.80;99.90
46309;DHT22;32037;50.820;6.494;2024-03-23T15:18:11;12.80;99.90
46309;DHT22;32037;50.820;6.494;2024-03-23T15:20:40;12.80;99.90
46309;DHT22;32037;50.820;6.494;2024-03-23T15:23:07;12.80;99.90
46309;DHT22;32037;50.820;6.494;2024-03-23T15:25:34;12.80;99.90
46309;DHT22;32037;50.820;6.494;2024-03-23T15:28:00;12.80;99.90
46309;DHT22;32037;50.820;6.494;2024-03-23T15:30:29;12.80;99.90
46309;DHT22;32037;50.820;6.494;2024-03-23T15:32:56;12.80;99.90
46309;DHT22;32037;50.820;6.494;2024-03-23T15:35:23;12.80;99.90
46309;DHT22;32037;50.820;6.494;2024-03-23T15:37:50;12.80;99.90
46309;DHT22;32037;50.820;6.494;2024-03-23T15:40:17;12.80;99.90
46309;DHT22;32037;50.820;6.494;2024-03-23T15:42:43;12.80;99.90
46309;DHT22;32037;50.820;6.494;2024-03-23T15:45:10;12.80;99.90
46309;DHT22;32037;50.820;6.494;2024-03-23T15:47:38;12.80;99.90
46309;DHT22;32037;50.820;6.494;2024-03-23T15:50:06;12.80;99.90
46309;DHT22;32037;50.820;6.494;2024-03-23T15:52:35;12.80;99.90
46309;DHT22;32037;50.820;6.494;2024-03-23T15:55:03;12.80;99.90
46309;DHT22;32037;50.820;6.494;2024-03-23T15:57:33;12.80;99.90
46309;DHT22;32037;50.820;6.494;2024-03-23T16:00:02;12.80;99.90
46309;DHT22;32037;50.820;6.494;2024-03-23T16:02:39;12.80;99.90
46309;DHT22;32037;50.820;6.494;2024-03-23T16:05:06;12.80;99.90
46309;DHT22;32037;50.820;6.494;2024-03-23T16:07:37;12.80;99.90
46309;DHT22;32037;50.820;6.494;2024-03-23T16:10:08;12.80;99.90
46309;DHT22;32037;50.820;6.494;2024-03-23T16:12:39;12.80;99.90
46309;DHT22;32037;50.820;6.494;2024-03-23T16:15:13;12.80;99.90
46309;DHT22;32037;50.820;6.494;2024-03-23T16:17:41;12.80;99.90
46309;DHT22;32037;50.820;6.494;2024-03-23T16:20:12;12.80;99.90
46309;DHT22;32037;50.820;6.494;2024-03-23T16:22:42;12.80;99.90
46309;DHT22;32037;50.820;6.494;2024-03-23T16:25:09;12.80;99.90
46309;DHT22;32037;50.820;6.494;2024-03-23T16:27:35;12.80;99.90